createdAt,value
2023-01-13T00:01:29.040Z,12.70
2023-01-13T00:03:57.613Z,12.90
2023-01-13T00:06:26.523Z,13.80
2023-01-13T00:08:55.011Z,13.90
2023-01-13T00:11:23.597Z,13.40
2023-01-13T00:13:51.687Z,13.60
2023-01-13T00:16:20.965Z,13.40
2023-01-13T00:18:51.241Z,13.60
2023-01-13T00:21:24.624Z,14.00
2023-01-13T00:26:24.625Z,10.90
2023-01-13T00:28:58.216Z,11.90
2023-01-13T00:31:27.525Z,11.00
2023-01-13T00:34:00.506Z,10.30
2023-01-13T00:36:29.557Z,8.40
2023-01-13T00:38:58.317Z,10.60
2023-01-13T00:41:27.515Z,12.70
2023-01-13T00:43:55.516Z,13.90
2023-01-13T00:46:23.950Z,14.60
2023-01-13T00:48:52.332Z,15.70
2023-01-13T00:51:21.990Z,16.50
2023-01-13T00:53:51.902Z,16.70
2023-01-13T00:56:38.584Z,16.60
2023-01-13T00:59:12.515Z,14.90
2023-01-13T01:01:41.579Z,13.10
2023-01-13T01:04:09.857Z,11.70
2023-01-13T01:06:38.352Z,11.20
2023-01-13T01:09:06.557Z,11.60
2023-01-13T01:11:35.040Z,11.20
2023-01-13T01:14:04.149Z,11.90
2023-01-13T01:16:34.137Z,11.20
2023-01-13T01:19:03.532Z,11.40
2023-01-13T01:21:32.720Z,11.50
2023-01-13T01:24:02.693Z,12.00
2023-01-13T01:26:32.017Z,13.60
2023-01-13T01:29:02.350Z,15.10
2023-01-13T01:31:33.379Z,15.20
2023-01-13T01:34:01.734Z,13.50
2023-01-13T01:36:30.398Z,12.80
2023-01-13T01:38:59.508Z,11.70
2023-01-13T01:41:30.531Z,13.70
2023-01-13T01:44:08.036Z,14.70
2023-01-13T01:46:40.266Z,17.40
2023-01-13T01:49:14.232Z,14.60
2023-01-13T01:52:04.574Z,15.90
2023-01-13T01:54:48.583Z,13.40
2023-01-13T01:57:44.036Z,13.10
2023-01-13T02:00:13.303Z,13.30
2023-01-13T02:02:45.571Z,13.40
2023-01-13T02:05:14.485Z,13.80
2023-01-13T02:07:44.699Z,14.70
2023-01-13T02:10:15.596Z,13.80
2023-01-13T02:12:45.434Z,12.30
2023-01-13T02:15:17.943Z,11.20
2023-01-13T02:18:06.306Z,10.20
2023-01-13T02:20:59.220Z,9.60
2023-01-13T02:23:54.793Z,9.70
2023-01-13T02:26:40.902Z,8.40
2023-01-13T02:30:05.171Z,8.70
2023-01-13T02:32:51.559Z,8.90
2023-01-13T02:35:36.027Z,8.60
2023-01-13T02:38:05.604Z,8.70
2023-01-13T02:40:59.191Z,9.10
2023-01-13T02:43:48.869Z,6.60
2023-01-13T02:46:31.780Z,11.30
2023-01-13T02:49:05.818Z,11.90
2023-01-13T02:51:35.515Z,12.40
2023-01-13T02:54:13.431Z,16.30
2023-01-13T02:56:47.541Z,11.30
2023-01-13T02:59:15.986Z,15.20
2023-01-13T03:01:44.211Z,17.30
2023-01-13T03:04:14.624Z,16.60
2023-01-13T03:07:01.816Z,16.70
2023-01-13T03:09:36.315Z,15.20
2023-01-13T03:12:14.402Z,10.80
2023-01-13T03:14:55.844Z,8.00
2023-01-13T03:17:32.867Z,8.80
2023-01-13T03:20:09.263Z,8.40
2023-01-13T03:22:50.087Z,5.40
2023-01-13T03:25:26.286Z,4.50
2023-01-13T03:28:31.220Z,4.60
2023-01-13T03:31:08.222Z,5.20
2023-01-13T03:34:09.836Z,10.40
2023-01-13T03:36:41.780Z,13.10
2023-01-13T03:39:16.205Z,7.00
2023-01-13T03:41:57.432Z,8.60
2023-01-13T03:44:36.866Z,8.20
2023-01-13T03:47:23.530Z,6.00
2023-01-13T03:50:01.144Z,5.50
2023-01-13T03:52:39.723Z,4.80
2023-01-13T03:55:13.468Z,5.50
2023-01-13T03:57:49.750Z,4.20
2023-01-13T04:00:19.693Z,5.70
2023-01-13T04:02:50.567Z,5.60
2023-01-13T04:05:19.321Z,5.40
2023-01-13T04:08:02.836Z,4.70
2023-01-13T04:11:02.707Z,4.80
2023-01-13T04:13:35.567Z,6.10
2023-01-13T04:16:07.769Z,7.70
2023-01-13T04:18:38.723Z,6.50
2023-01-13T04:21:08.077Z,7.40
2023-01-13T04:23:36.074Z,8.00
2023-01-13T04:26:04.663Z,7.80
2023-01-13T04:28:34.923Z,8.60
2023-01-13T04:31:03.122Z,8.00
2023-01-13T04:33:31.149Z,7.60
2023-01-13T04:35:59.147Z,6.40
2023-01-13T04:38:27.356Z,7.90
2023-01-13T04:40:55.586Z,7.20
2023-01-13T04:43:23.579Z,7.40
2023-01-13T04:45:51.651Z,6.60
2023-01-13T04:48:19.959Z,6.60
2023-01-13T04:50:48.178Z,8.30
2023-01-13T04:53:16.439Z,8.30
2023-01-13T04:55:44.610Z,9.20
2023-01-13T04:58:12.624Z,5.70
2023-01-13T05:00:40.757Z,4.50
2023-01-13T05:03:08.806Z,4.40
2023-01-13T05:05:38.093Z,4.90
2023-01-13T05:08:06.463Z,4.00
2023-01-13T05:10:34.887Z,4.50
2023-01-13T05:13:21.410Z,4.00
2023-01-13T05:16:06.698Z,4.10
2023-01-13T05:18:35.082Z,3.00
2023-01-13T05:21:03.196Z,5.00
2023-01-13T05:23:49.725Z,3.70
2023-01-13T05:26:17.850Z,3.30
2023-01-13T05:28:45.860Z,3.40
2023-01-13T05:31:15.161Z,3.90
2023-01-13T05:33:43.230Z,4.30
2023-01-13T05:36:11.199Z,3.60
2023-01-13T05:38:39.256Z,4.50
2023-01-13T05:41:26.681Z,3.80
2023-01-13T05:43:54.890Z,3.90
2023-01-13T05:46:23.015Z,3.80
2023-01-13T05:48:51.099Z,5.60
2023-01-13T05:51:22.576Z,5.50
2023-01-13T05:53:50.595Z,5.50
2023-01-13T05:56:18.643Z,4.80
2023-01-13T05:58:46.847Z,4.20
2023-01-13T06:01:14.873Z,3.80
2023-01-13T06:03:42.948Z,5.90
2023-01-13T06:06:11.069Z,3.80
2023-01-13T06:08:39.953Z,3.80
2023-01-13T06:11:08.512Z,4.60
2023-01-13T06:13:36.726Z,3.70
2023-01-13T06:16:05.233Z,4.00
2023-01-13T06:18:33.408Z,3.40
2023-01-13T06:21:01.596Z,10.90
2023-01-13T06:23:29.775Z,30.70
2023-01-13T06:26:10.281Z,31.00
2023-01-13T06:28:38.435Z,34.20
2023-01-13T06:31:08.470Z,27.30
2023-01-13T06:33:40.893Z,22.80
2023-01-13T06:36:22.349Z,32.40
2023-01-13T06:38:55.100Z,35.60
2023-01-13T06:41:44.252Z,40.20
2023-01-13T06:44:12.529Z,36.50
2023-01-13T06:46:40.829Z,29.70
2023-01-13T06:49:09.017Z,21.90
2023-01-13T06:51:37.308Z,30.40
2023-01-13T06:54:05.776Z,38.80
2023-01-13T06:56:33.842Z,43.40
2023-01-13T06:59:01.974Z,38.50
2023-01-13T07:01:30.531Z,31.90
2023-01-13T07:03:58.778Z,24.20
2023-01-13T07:06:26.832Z,18.30
2023-01-13T07:08:55.351Z,109.20
2023-01-13T07:11:23.507Z,49.10
2023-01-13T07:14:10.271Z,27.50
2023-01-13T07:16:38.549Z,18.50
2023-01-13T07:19:06.636Z,15.60
2023-01-13T07:21:34.847Z,8.50
2023-01-13T07:24:02.903Z,9.70
2023-01-13T07:26:30.984Z,8.00
2023-01-13T07:28:59.101Z,11.50
2023-01-13T07:31:27.187Z,9.70
2023-01-13T07:33:55.420Z,8.60
2023-01-13T07:36:23.418Z,6.20
2023-01-13T07:38:53.295Z,8.70
2023-01-13T07:41:41.441Z,8.70
2023-01-13T07:44:10.877Z,8.50
2023-01-13T07:46:39.971Z,8.80
2023-01-13T07:49:09.117Z,9.90
2023-01-13T07:51:40.546Z,9.40
2023-01-13T07:54:08.668Z,8.20
2023-01-13T07:56:36.822Z,7.00
2023-01-13T07:59:05.142Z,8.20
2023-01-13T08:01:33.502Z,7.90
2023-01-13T08:04:01.713Z,8.10
2023-01-13T08:06:29.874Z,7.50
2023-01-13T08:08:58.823Z,8.20
2023-01-13T08:11:26.781Z,7.60
2023-01-13T08:13:58.240Z,9.20
2023-01-13T08:16:26.523Z,8.50
2023-01-13T08:18:54.761Z,9.70
2023-01-13T08:21:22.968Z,11.30
2023-01-13T08:23:50.990Z,18.20
2023-01-13T08:26:19.200Z,15.60
2023-01-13T08:28:47.328Z,10.40
2023-01-13T08:31:17.183Z,7.60
2023-01-13T08:33:45.948Z,9.10
2023-01-13T08:36:14.294Z,7.60
2023-01-13T08:38:42.570Z,8.10
2023-01-13T08:41:15.977Z,6.60
2023-01-13T08:46:12.480Z,8.30
2023-01-13T08:48:40.665Z,7.70
2023-01-13T08:51:09.398Z,8.70
2023-01-13T08:53:37.540Z,7.60
2023-01-13T08:56:13.307Z,7.00
2023-01-13T08:58:41.393Z,6.90
2023-01-13T09:01:14.005Z,6.50
2023-01-13T09:03:42.352Z,5.60
2023-01-13T09:06:10.537Z,6.50
2023-01-13T09:08:38.752Z,9.00
2023-01-13T09:11:26.939Z,17.50
2023-01-13T09:13:55.242Z,8.00
2023-01-13T09:16:23.338Z,9.00
2023-01-13T09:18:51.494Z,10.60
2023-01-13T09:21:21.128Z,4.90
2023-01-13T09:23:49.363Z,5.40
2023-01-13T09:26:20.848Z,7.40
2023-01-13T09:28:49.272Z,4.40
2023-01-13T09:31:17.428Z,4.20
2023-01-13T09:34:04.174Z,6.90
2023-01-13T09:36:32.251Z,6.10
2023-01-13T09:39:00.350Z,4.30
2023-01-13T09:41:49.805Z,4.50
2023-01-13T09:44:25.531Z,5.40
2023-01-13T09:47:00.204Z,10.30
2023-01-13T09:49:38.777Z,4.30
2023-01-13T09:52:19.808Z,3.70
2023-01-13T09:55:10.244Z,3.70
2023-01-13T09:57:39.972Z,3.70
2023-01-13T10:00:16.033Z,3.20
2023-01-13T10:03:07.153Z,2.70
2023-01-13T10:05:39.191Z,3.70
2023-01-13T10:08:37.840Z,2.70
2023-01-13T10:11:31.083Z,2.50
2023-01-13T10:14:02.641Z,4.10
2023-01-13T10:16:36.748Z,5.90
2023-01-13T10:19:27.657Z,6.70
2023-01-13T10:21:55.628Z,3.90
2023-01-13T10:24:42.241Z,4.30
2023-01-13T10:27:25.465Z,4.10
2023-01-13T10:29:53.437Z,3.60
2023-01-13T10:32:21.472Z,8.10
2023-01-13T10:34:51.709Z,6.40
2023-01-13T10:37:28.324Z,10.40
2023-01-13T10:40:00.828Z,6.80
2023-01-13T10:42:29.250Z,5.80
2023-01-13T10:45:00.013Z,6.90
2023-01-13T10:47:34.406Z,4.90
2023-01-13T10:50:17.175Z,4.70
2023-01-13T10:53:03.339Z,5.20
2023-01-13T10:55:37.271Z,5.40
2023-01-13T10:58:19.590Z,6.10
2023-01-13T11:00:49.498Z,5.60
2023-01-13T11:03:22.061Z,6.30
2023-01-13T11:05:59.254Z,6.60
2023-01-13T11:08:49.366Z,5.90
2023-01-13T11:11:28.475Z,6.30
2023-01-13T11:14:21.102Z,7.20
2023-01-13T11:16:53.989Z,7.00
2023-01-13T11:19:24.076Z,7.20
2023-01-13T11:22:05.899Z,7.70
2023-01-13T11:24:51.146Z,7.60
2023-01-13T11:28:08.497Z,7.00
2023-01-13T11:31:35.155Z,7.40
2023-01-13T11:34:08.168Z,7.10
2023-01-13T11:36:43.650Z,6.10
2023-01-13T11:39:27.065Z,6.00
2023-01-13T11:42:20.070Z,6.20
2023-01-13T11:45:06.409Z,6.40
2023-01-13T11:47:36.190Z,7.00
2023-01-13T11:50:13.865Z,5.60
2023-01-13T11:52:47.892Z,5.60
2023-01-13T11:55:31.157Z,7.60
2023-01-13T11:58:24.974Z,7.20
2023-01-13T12:01:05.252Z,6.70
2023-01-13T12:03:46.400Z,6.40
2023-01-13T12:06:31.859Z,6.60
2023-01-13T12:09:18.532Z,5.50
2023-01-13T12:12:19.454Z,5.90
2023-01-13T12:14:56.596Z,5.30
2023-01-13T12:17:51.392Z,7.60
2023-01-13T12:20:44.169Z,6.00
2023-01-13T12:23:34.893Z,6.00
2023-01-13T12:26:12.174Z,5.60
2023-01-13T12:29:19.089Z,5.80
2023-01-13T12:31:51.453Z,6.50
2023-01-13T12:35:06.055Z,5.00
2023-01-13T12:38:02.602Z,6.00
2023-01-13T12:41:07.264Z,5.40
2023-01-13T12:43:56.503Z,4.80
2023-01-13T12:46:24.762Z,7.80
2023-01-13T12:48:57.208Z,7.00
2023-01-13T12:51:38.204Z,5.50
2023-01-13T12:54:31.300Z,5.60
2023-01-13T12:56:59.977Z,5.20
2023-01-13T12:59:27.909Z,6.10
2023-01-13T13:02:11.169Z,5.40
2023-01-13T13:04:49.692Z,6.10
2023-01-13T13:07:26.727Z,6.90
2023-01-13T13:09:59.959Z,7.70
2023-01-13T13:12:49.763Z,7.20
2023-01-13T13:15:26.591Z,6.80
2023-01-13T13:18:00.619Z,8.10
2023-01-13T13:20:58.303Z,6.40
2023-01-13T13:23:29.487Z,5.70
2023-01-13T13:26:06.626Z,6.40
2023-01-13T13:28:40.241Z,7.10
2023-01-13T13:31:18.792Z,6.50
2023-01-13T13:33:50.314Z,15.20
2023-01-13T13:36:21.483Z,13.20
2023-01-13T13:39:42.400Z,11.20
2023-01-13T13:42:34.454Z,10.60
2023-01-13T13:45:30.595Z,8.00
2023-01-13T13:47:58.592Z,6.20
2023-01-13T13:50:26.752Z,6.30
2023-01-13T13:53:07.112Z,8.20
2023-01-13T13:55:36.762Z,6.20
2023-01-13T13:58:05.848Z,8.50
2023-01-13T14:00:36.033Z,6.60
2023-01-13T14:03:07.902Z,5.70
2023-01-13T14:05:37.354Z,6.20
2023-01-13T14:08:17.024Z,5.40
2023-01-13T14:10:46.322Z,5.10
2023-01-13T14:13:18.297Z,5.90
2023-01-13T14:15:48.536Z,5.30
2023-01-13T14:18:21.208Z,6.30
2023-01-13T14:20:59.621Z,6.00
2023-01-13T14:23:30.414Z,5.20
2023-01-13T14:26:13.023Z,4.90
2023-01-13T14:28:42.384Z,5.50
2023-01-13T14:31:12.855Z,5.30
2023-01-13T14:33:46.355Z,5.90
2023-01-13T14:36:24.001Z,5.60
2023-01-13T14:39:04.188Z,4.90
2023-01-13T14:41:48.259Z,5.50
2023-01-13T14:44:28.490Z,4.90
2023-01-13T14:46:59.078Z,6.00
2023-01-13T14:49:39.568Z,5.10
2023-01-13T14:52:21.462Z,5.30
2023-01-13T14:54:50.857Z,5.70
2023-01-13T14:57:31.427Z,4.70
2023-01-13T15:00:14.851Z,4.90
2023-01-13T15:02:53.590Z,4.70
2023-01-13T15:05:24.459Z,4.80
2023-01-13T15:07:59.430Z,5.10
2023-01-13T15:10:38.299Z,4.10
2023-01-13T15:13:07.410Z,5.10
2023-01-13T15:15:37.982Z,4.20
2023-01-13T15:18:13.840Z,4.90
2023-01-13T15:20:42.064Z,4.80
2023-01-13T15:23:11.420Z,4.80
2023-01-13T15:25:42.021Z,4.60
2023-01-13T15:28:29.012Z,5.20
2023-01-13T15:31:00.731Z,5.50
2023-01-13T15:33:29.004Z,5.00
2023-01-13T15:35:57.074Z,5.00
2023-01-13T15:38:25.117Z,5.80
2023-01-13T15:40:53.251Z,5.70
2023-01-13T15:43:42.250Z,5.80
2023-01-13T15:46:38.979Z,5.00
2023-01-13T15:49:27.704Z,4.80
2023-01-13T15:51:55.693Z,5.20
2023-01-13T15:54:24.829Z,5.80
2023-01-13T15:56:53.817Z,4.80
2023-01-13T15:59:26.364Z,5.70
2023-01-13T16:01:55.138Z,6.00
2023-01-13T16:04:23.399Z,5.20
2023-01-13T16:06:52.058Z,5.90
2023-01-13T16:09:20.199Z,6.60
2023-01-13T16:11:48.266Z,5.60
2023-01-13T16:14:16.437Z,6.10
2023-01-13T16:16:44.669Z,6.80
2023-01-13T16:19:12.880Z,6.20
2023-01-13T16:21:41.523Z,5.40
2023-01-13T16:24:09.635Z,5.90
2023-01-13T16:26:39.016Z,6.10
2023-01-13T16:29:08.190Z,5.90
2023-01-13T16:31:36.705Z,5.40
2023-01-13T16:34:05.703Z,6.50
2023-01-13T16:36:36.515Z,6.90
2023-01-13T16:39:05.348Z,5.70
2023-01-13T16:41:33.818Z,5.10
2023-01-13T16:44:06.100Z,5.70
2023-01-13T16:46:34.392Z,5.80
2023-01-13T16:49:05.353Z,5.70
2023-01-13T16:51:33.789Z,5.60
2023-01-13T16:54:01.778Z,6.00
2023-01-13T16:56:32.472Z,6.00
2023-01-13T16:59:05.863Z,6.10
2023-01-13T17:04:03.416Z,5.80
2023-01-13T17:06:41.903Z,6.10
2023-01-13T17:09:19.249Z,5.60
2023-01-13T17:11:47.324Z,6.10
2023-01-13T17:14:18.907Z,6.60
2023-01-13T17:16:47.796Z,6.40
2023-01-13T17:19:16.851Z,5.60
2023-01-13T17:21:47.044Z,6.40
2023-01-13T17:24:15.306Z,6.20
2023-01-13T17:26:47.251Z,6.00
2023-01-13T17:29:18.393Z,6.60
2023-01-13T17:31:46.534Z,6.10
2023-01-13T17:34:14.834Z,6.60
2023-01-13T17:36:43.512Z,6.20
2023-01-13T17:39:20.408Z,7.00
2023-01-13T17:41:48.533Z,6.90
2023-01-13T17:44:19.509Z,5.90
2023-01-13T17:46:47.707Z,7.20
2023-01-13T17:49:17.858Z,6.60
2023-01-13T17:51:48.864Z,7.10
2023-01-13T17:54:17.819Z,6.60
2023-01-13T17:56:45.859Z,5.70
2023-01-13T17:59:15.675Z,5.60
2023-01-13T18:01:44.052Z,6.00
2023-01-13T18:04:24.914Z,6.50
2023-01-13T18:06:53.644Z,5.90
2023-01-13T18:09:22.900Z,6.20
2023-01-13T18:11:50.927Z,5.80
2023-01-13T18:14:22.325Z,5.40
2023-01-13T18:16:51.233Z,5.50
2023-01-13T18:19:37.899Z,5.50
2023-01-13T18:22:24.300Z,4.70
2023-01-13T18:25:11.073Z,5.40
2023-01-13T18:27:41.794Z,4.20
2023-01-13T18:30:10.741Z,4.50
2023-01-13T18:32:38.855Z,5.60
2023-01-13T18:35:10.436Z,6.10
2023-01-13T18:37:42.015Z,5.60
2023-01-13T18:40:13.338Z,5.00
2023-01-13T18:42:56.526Z,4.60
2023-01-13T18:45:27.843Z,4.20
2023-01-13T18:47:58.490Z,5.30
2023-01-13T18:50:28.305Z,4.70
2023-01-13T18:52:57.145Z,5.20
2023-01-13T18:55:25.761Z,4.30
2023-01-13T18:57:54.627Z,5.50
2023-01-13T19:00:23.245Z,5.30
2023-01-13T19:05:36.119Z,5.20
2023-01-13T19:08:04.891Z,5.10
2023-01-13T19:10:33.392Z,6.00
2023-01-13T19:13:01.939Z,4.90
2023-01-13T19:15:30.247Z,5.40
2023-01-13T19:17:58.458Z,5.60
2023-01-13T19:20:26.785Z,5.60
2023-01-13T19:22:55.052Z,5.30
2023-01-13T19:25:23.147Z,5.40
2023-01-13T19:27:51.178Z,5.50
2023-01-13T19:30:19.511Z,5.20
2023-01-13T19:32:47.637Z,5.90
2023-01-13T19:35:18.122Z,5.20
2023-01-13T19:37:46.350Z,4.80
2023-01-13T19:40:14.680Z,5.10
2023-01-13T19:43:02.746Z,5.00
2023-01-13T19:45:32.235Z,5.90
2023-01-13T19:48:02.010Z,9.10
2023-01-13T19:50:30.140Z,8.70
2023-01-13T19:52:58.191Z,8.40
2023-01-13T19:55:26.320Z,10.50
2023-01-13T19:57:54.376Z,8.90
2023-01-13T20:00:23.879Z,8.00
2023-01-13T20:02:53.361Z,6.10
2023-01-13T20:05:24.406Z,6.40
2023-01-13T20:07:52.948Z,6.40
2023-01-13T20:10:23.890Z,6.90
2023-01-13T20:12:52.117Z,6.40
2023-01-13T20:15:20.256Z,5.10
2023-01-13T20:17:48.396Z,4.20
2023-01-13T20:20:18.628Z,18.60
2023-01-13T20:22:47.074Z,22.40
2023-01-13T20:25:17.151Z,19.60
2023-01-13T20:27:46.712Z,28.00
2023-01-13T20:30:15.639Z,9.60
2023-01-13T20:32:44.175Z,5.00
2023-01-13T20:35:12.520Z,4.20
2023-01-13T20:37:42.308Z,3.70
2023-01-13T20:40:14.244Z,4.70
2023-01-13T20:42:45.204Z,4.40
2023-01-13T20:45:17.804Z,4.10
2023-01-13T20:47:46.269Z,5.10
2023-01-13T20:50:15.516Z,4.90
2023-01-13T20:52:44.498Z,5.70
2023-01-13T20:55:13.644Z,10.70
2023-01-13T20:57:42.973Z,11.00
2023-01-13T21:00:11.519Z,11.80
2023-01-13T21:02:41.284Z,19.70
2023-01-13T21:05:10.244Z,17.50
2023-01-13T21:07:38.265Z,8.80
2023-01-13T21:10:06.656Z,5.20
2023-01-13T21:12:53.331Z,4.10
2023-01-13T21:15:22.799Z,7.70
2023-01-13T21:18:10.582Z,5.70
2023-01-13T21:20:39.712Z,4.10
2023-01-13T21:23:08.282Z,4.70
2023-01-13T21:25:39.589Z,10.40
2023-01-13T21:28:10.427Z,19.80
2023-01-13T21:30:39.451Z,13.10
2023-01-13T21:33:07.894Z,26.90
2023-01-13T21:35:38.064Z,23.80
2023-01-13T21:38:06.387Z,7.00
2023-01-13T21:40:34.922Z,4.90
2023-01-13T21:43:21.413Z,4.90
2023-01-13T21:46:08.361Z,5.60
2023-01-13T21:48:36.494Z,5.50
2023-01-13T21:51:05.039Z,4.80
2023-01-13T21:53:33.267Z,8.70
2023-01-13T21:56:01.353Z,18.90
2023-01-13T21:58:29.364Z,21.60
2023-01-13T22:01:01.369Z,22.50
2023-01-13T22:03:29.722Z,25.50
2023-01-13T22:05:57.753Z,26.50
2023-01-13T22:08:25.693Z,41.00
2023-01-13T22:11:00.273Z,46.70
2023-01-13T22:13:58.318Z,31.60
2023-01-13T22:16:26.827Z,27.20
2023-01-13T22:18:55.110Z,39.20
2023-01-13T22:21:23.142Z,39.50
2023-01-13T22:23:51.458Z,50.70
2023-01-13T22:26:19.705Z,51.10
2023-01-13T22:28:47.770Z,38.80
2023-01-13T22:31:18.591Z,50.10
2023-01-13T22:33:47.194Z,49.80
2023-01-13T22:36:15.424Z,44.80
2023-01-13T22:38:43.461Z,34.10
2023-01-13T22:41:11.747Z,28.10
2023-01-13T22:43:39.916Z,39.30
2023-01-13T22:46:12.789Z,48.30
2023-01-13T22:48:41.415Z,49.30
2023-01-13T22:51:15.616Z,44.00
2023-01-13T22:53:43.792Z,37.80
2023-01-13T22:56:21.028Z,26.90
2023-01-13T22:58:56.958Z,22.30
2023-01-13T23:01:26.884Z,19.10
2023-01-13T23:03:55.396Z,22.90
2023-01-13T23:06:25.555Z,25.00
2023-01-13T23:08:54.239Z,22.00
2023-01-13T23:11:24.975Z,21.40
2023-01-13T23:14:08.228Z,19.80
2023-01-13T23:16:38.304Z,18.90
2023-01-13T23:19:07.484Z,18.30
2023-01-13T23:21:38.045Z,16.90
2023-01-13T23:24:07.359Z,17.20
2023-01-13T23:26:36.127Z,17.60
2023-01-13T23:29:07.833Z,15.50
2023-01-13T23:31:35.924Z,15.30
2023-01-13T23:34:04.167Z,12.60
2023-01-13T23:36:32.368Z,13.40
2023-01-13T23:39:00.424Z,14.40
2023-01-13T23:41:28.619Z,14.50
2023-01-13T23:43:59.584Z,14.10
2023-01-13T23:46:30.022Z,14.10
2023-01-13T23:48:58.285Z,16.80
2023-01-13T23:51:27.616Z,15.30
2023-01-13T23:53:56.392Z,15.60
2023-01-13T23:56:29.822Z,13.00
2023-01-13T23:58:58.265Z,11.80
